sensor_id;sensor_type;location;lat;lon;timestamp;P1;durP1;ratioP1;P2;durP2;ratioP2
12425;SDS011;6277;49.824;9.562;2023-09-19T00:02:16;0.50;;;0.38;;
12425;SDS011;6277;49.824;9.562;2023-09-19T00:04:42;0.77;;;0.25;;
12425;SDS011;6277;49.824;9.562;2023-09-19T00:07:08;0.93;;;0.40;;
12425;SDS011;6277;49.824;9.562;2023-09-19T00:09:34;0.70;;;0.30;;
12425;SDS011;6277;49.824;9.562;2023-09-19T00:12:05;1.42;;;0.32;;
12425;SDS011;6277;49.824;9.562;2023-09-19T00:14:32;0.30;;;0.30;;
12425;SDS011;6277;49.824;9.562;2023-09-19T00:17:01;0.65;;;0.40;;
12425;SDS011;6277;49.824;9.562;2023-09-19T00:19:30;0.60;;;0.40;;
12425;SDS011;6277;49.824;9.562;2023-09-19T00:21:57;1.08;;;0.30;;
12425;SDS011;6277;49.824;9.562;2023-09-19T00:24:23;0.45;;;0.30;;
12425;SDS011;6277;49.824;9.562;2023-09-19T00:26:48;0.77;;;0.35;;
12425;SDS011;6277;49.824;9.562;2023-09-19T00:29:14;0.82;;;0.40;;
12425;SDS011;6277;49.824;9.562;2023-09-19T00:31:44;1.05;;;0.40;;
12425;SDS011;6277;49.824;9.562;2023-09-19T00:34:10;0.32;;;0.30;;
12425;SDS011;6277;49.824;9.562;2023-09-19T00:36:36;0.60;;;0.20;;
12425;SDS011;6277;49.824;9.562;2023-09-19T00:39:04;2.55;;;0.55;;
12425;SDS011;6277;49.824;9.562;2023-09-19T00:41:31;0.45;;;0.30;;
12425;SDS011;6277;49.824;9.562;2023-09-19T00:43:57;0.57;;;0.28;;
12425;SDS011;6277;49.824;9.562;2023-09-19T00:46:25;0.60;;;0.47;;
12425;SDS011;6277;49.824;9.562;2023-09-19T00:48:50;0.70;;;0.40;;
12425;SDS011;6277;49.824;9.562;2023-09-19T00:51:16;2.10;;;0.50;;
12425;SDS011;6277;49.824;9.562;2023-09-19T00:53:47;0.90;;;0.38;;
12425;SDS011;6277;49.824;9.562;2023-09-19T00:56:13;0.50;;;0.30;;
12425;SDS011;6277;49.824;9.562;2023-09-19T00:58:40;1.17;;;0.40;;
12425;SDS011;6277;49.824;9.562;2023-09-19T01:01:05;1.15;;;0.50;;
12425;SDS011;6277;49.824;9.562;2023-09-19T01:03:32;0.40;;;0.30;;
12425;SDS011;6277;49.824;9.562;2023-09-19T01:06:01;0.65;;;0.47;;
12425;SDS011;6277;49.824;9.562;2023-09-19T01:08:27;1.63;;;0.40;;
12425;SDS011;6277;49.824;9.562;2023-09-19T01:11:06;0.85;;;0.40;;
12425;SDS011;6277;49.824;9.562;2023-09-19T01:13:42;1.25;;;0.40;;
12425;SDS011;6277;49.824;9.562;2023-09-19T01:18:51;0.63;;;0.40;;
12425;SDS011;6277;49.824;9.562;2023-09-19T01:21:28;1.20;;;0.40;;
12425;SDS011;6277;49.824;9.562;2023-09-19T01:27:08;0.60;;;0.40;;
12425;SDS011;6277;49.824;9.562;2023-09-19T01:30:00;1.10;;;0.47;;
12425;SDS011;6277;49.824;9.562;2023-09-19T01:32:34;1.80;;;0.57;;
12425;SDS011;6277;49.824;9.562;2023-09-19T01:35:03;1.20;;;0.40;;
12425;SDS011;6277;49.824;9.562;2023-09-19T01:37:31;0.50;;;0.40;;
12425;SDS011;6277;49.824;9.562;2023-09-19T01:40:00;1.70;;;0.52;;
12425;SDS011;6277;49.824;9.562;2023-09-19T01:42:44;2.10;;;0.50;;
12425;SDS011;6277;49.824;9.562;2023-09-19T01:47:51;1.02;;;0.50;;
12425;SDS011;6277;49.824;9.562;2023-09-19T01:50:24;2.03;;;0.70;;
12425;SDS011;6277;49.824;9.562;2023-09-19T01:53:10;2.25;;;0.50;;
12425;SDS011;6277;49.824;9.562;2023-09-19T01:55:46;1.83;;;0.75;;
12425;SDS011;6277;49.824;9.562;2023-09-19T02:00:47;2.55;;;0.95;;
12425;SDS011;6277;49.824;9.562;2023-09-19T02:03:16;1.17;;;0.50;;
12425;SDS011;6277;49.824;9.562;2023-09-19T02:05:48;1.38;;;0.50;;
12425;SDS011;6277;49.824;9.562;2023-09-19T02:08:16;2.05;;;0.57;;
12425;SDS011;6277;49.824;9.562;2023-09-19T02:10:44;0.70;;;0.50;;
12425;SDS011;6277;49.824;9.562;2023-09-19T02:13:14;1.02;;;0.50;;
12425;SDS011;6277;49.824;9.562;2023-09-19T02:15:44;0.50;;;0.50;;
12425;SDS011;6277;49.824;9.562;2023-09-19T02:18:09;1.02;;;0.50;;
12425;SDS011;6277;49.824;9.562;2023-09-19T02:20:36;0.93;;;0.63;;
12425;SDS011;6277;49.824;9.562;2023-09-19T02:23:02;1.45;;;0.60;;
12425;SDS011;6277;49.824;9.562;2023-09-19T02:25:28;1.27;;;0.70;;
12425;SDS011;6277;49.824;9.562;2023-09-19T02:27:55;1.08;;;0.40;;
12425;SDS011;6277;49.824;9.562;2023-09-19T02:30:23;1.88;;;0.50;;
12425;SDS011;6277;49.824;9.562;2023-09-19T02:32:50;1.15;;;0.50;;
12425;SDS011;6277;49.824;9.562;2023-09-19T02:35:16;1.67;;;0.60;;
12425;SDS011;6277;49.824;9.562;2023-09-19T02:37:44;0.95;;;0.55;;
12425;SDS011;6277;49.824;9.562;2023-09-19T02:40:10;0.93;;;0.60;;
12425;SDS011;6277;49.824;9.562;2023-09-19T02:42:48;1.35;;;0.50;;
12425;SDS011;6277;49.824;9.562;2023-09-19T02:45:17;2.75;;;0.60;;
12425;SDS011;6277;49.824;9.562;2023-09-19T02:47:46;0.70;;;0.50;;
12425;SDS011;6277;49.824;9.562;2023-09-19T02:50:13;1.50;;;0.80;;
12425;SDS011;6277;49.824;9.562;2023-09-19T02:52:41;1.60;;;0.60;;
12425;SDS011;6277;49.824;9.562;2023-09-19T02:55:14;1.13;;;0.60;;
12425;SDS011;6277;49.824;9.562;2023-09-19T02:57:47;2.67;;;0.60;;
12425;SDS011;6277;49.824;9.562;2023-09-19T03:00:14;0.95;;;0.52;;
12425;SDS011;6277;49.824;9.562;2023-09-19T03:02:40;0.90;;;0.50;;
12425;SDS011;6277;49.824;9.562;2023-09-19T03:05:06;1.45;;;0.70;;
12425;SDS011;6277;49.824;9.562;2023-09-19T03:07:32;1.20;;;0.95;;
12425;SDS011;6277;49.824;9.562;2023-09-19T03:09:58;1.08;;;0.55;;
12425;SDS011;6277;49.824;9.562;2023-09-19T03:12:24;0.95;;;0.73;;
12425;SDS011;6277;49.824;9.562;2023-09-19T03:14:53;1.38;;;0.60;;
12425;SDS011;6277;49.824;9.562;2023-09-19T03:17:19;1.30;;;0.70;;
12425;SDS011;6277;49.824;9.562;2023-09-19T03:19:45;1.10;;;0.95;;
12425;SDS011;6277;49.824;9.562;2023-09-19T03:22:12;2.67;;;0.90;;
12425;SDS011;6277;49.824;9.562;2023-09-19T03:24:39;0.90;;;0.68;;
12425;SDS011;6277;49.824;9.562;2023-09-19T03:27:04;0.70;;;0.70;;
12425;SDS011;6277;49.824;9.562;2023-09-19T03:29:30;1.42;;;1.00;;
12425;SDS011;6277;49.824;9.562;2023-09-19T03:31:55;2.83;;;0.90;;
12425;SDS011;6277;49.824;9.562;2023-09-19T03:34:21;1.05;;;0.70;;
12425;SDS011;6277;49.824;9.562;2023-09-19T03:36:47;1.35;;;0.90;;
12425;SDS011;6277;49.824;9.562;2023-09-19T03:39:12;1.50;;;0.85;;
12425;SDS011;6277;49.824;9.562;2023-09-19T03:41:40;1.52;;;0.80;;
12425;SDS011;6277;49.824;9.562;2023-09-19T03:44:05;1.90;;;1.10;;
12425;SDS011;6277;49.824;9.562;2023-09-19T03:46:31;1.63;;;0.82;;
12425;SDS011;6277;49.824;9.562;2023-09-19T03:48:57;1.35;;;0.80;;
12425;SDS011;6277;49.824;9.562;2023-09-19T03:51:23;1.13;;;0.80;;
12425;SDS011;6277;49.824;9.562;2023-09-19T03:53:48;1.40;;;0.90;;
12425;SDS011;6277;49.824;9.562;2023-09-19T03:56:15;1.65;;;0.80;;
12425;SDS011;6277;49.824;9.562;2023-09-19T03:58:40;0.88;;;0.70;;
12425;SDS011;6277;49.824;9.562;2023-09-19T04:01:06;3.10;;;0.85;;
12425;SDS011;6277;49.824;9.562;2023-09-19T04:03:32;1.10;;;0.82;;
12425;SDS011;6277;49.824;9.562;2023-09-19T04:06:14;0.80;;;0.70;;
12425;SDS011;6277;49.824;9.562;2023-09-19T04:08:40;1.73;;;0.90;;
12425;SDS011;6277;49.824;9.562;2023-09-19T04:11:06;1.58;;;0.80;;
12425;SDS011;6277;49.824;9.562;2023-09-19T04:13:32;2.40;;;1.05;;
12425;SDS011;6277;49.824;9.562;2023-09-19T04:15:57;1.55;;;0.80;;
12425;SDS011;6277;49.824;9.562;2023-09-19T04:18:23;2.58;;;0.93;;
12425;SDS011;6277;49.824;9.562;2023-09-19T04:20:52;1.10;;;0.70;;
12425;SDS011;6277;49.824;9.562;2023-09-19T04:23:18;1.15;;;0.90;;
12425;SDS011;6277;49.824;9.562;2023-09-19T04:25:47;1.40;;;1.00;;
12425;SDS011;6277;49.824;9.562;2023-09-19T04:28:13;1.02;;;0.70;;
12425;SDS011;6277;49.824;9.562;2023-09-19T04:30:38;1.08;;;0.80;;
12425;SDS011;6277;49.824;9.562;2023-09-19T04:33:05;1.17;;;0.85;;
12425;SDS011;6277;49.824;9.562;2023-09-19T04:35:31;1.25;;;0.70;;
12425;SDS011;6277;49.824;9.562;2023-09-19T04:37:57;0.80;;;0.80;;
12425;SDS011;6277;49.824;9.562;2023-09-19T04:40:23;2.05;;;0.90;;
12425;SDS011;6277;49.824;9.562;2023-09-19T04:42:54;1.42;;;0.90;;
12425;SDS011;6277;49.824;9.562;2023-09-19T04:45:21;1.77;;;1.00;;
12425;SDS011;6277;49.824;9.562;2023-09-19T04:47:47;1.58;;;1.00;;
12425;SDS011;6277;49.824;9.562;2023-09-19T04:50:13;1.10;;;0.80;;
12425;SDS011;6277;49.824;9.562;2023-09-19T04:52:41;0.90;;;0.75;;
12425;SDS011;6277;49.824;9.562;2023-09-19T04:55:09;1.35;;;0.63;;
12425;SDS011;6277;49.824;9.562;2023-09-19T04:57:45;0.83;;;0.73;;
12425;SDS011;6277;49.824;9.562;2023-09-19T05:00:12;1.85;;;0.88;;
12425;SDS011;6277;49.824;9.562;2023-09-19T05:02:39;1.67;;;0.80;;
12425;SDS011;6277;49.824;9.562;2023-09-19T05:05:06;1.13;;;0.98;;
12425;SDS011;6277;49.824;9.562;2023-09-19T05:07:33;1.60;;;0.80;;
12425;SDS011;6277;49.824;9.562;2023-09-19T05:09:59;1.77;;;0.70;;
12425;SDS011;6277;49.824;9.562;2023-09-19T05:12:28;2.65;;;0.93;;
12425;SDS011;6277;49.824;9.562;2023-09-19T05:14:54;1.92;;;0.70;;
12425;SDS011;6277;49.824;9.562;2023-09-19T05:17:20;1.83;;;0.95;;
12425;SDS011;6277;49.824;9.562;2023-09-19T05:19:46;1.42;;;0.70;;
12425;SDS011;6277;49.824;9.562;2023-09-19T05:22:12;1.45;;;0.70;;
12425;SDS011;6277;49.824;9.562;2023-09-19T05:24:37;1.35;;;0.68;;
12425;SDS011;6277;49.824;9.562;2023-09-19T05:27:04;2.28;;;0.88;;
12425;SDS011;6277;49.824;9.562;2023-09-19T05:29:32;2.13;;;0.95;;
12425;SDS011;6277;49.824;9.562;2023-09-19T05:31:58;3.22;;;1.00;;
12425;SDS011;6277;49.824;9.562;2023-09-19T05:34:24;1.17;;;0.82;;
12425;SDS011;6277;49.824;9.562;2023-09-19T05:36:53;0.98;;;0.73;;
12425;SDS011;6277;49.824;9.562;2023-09-19T05:39:19;1.08;;;0.77;;
12425;SDS011;6277;49.824;9.562;2023-09-19T05:41:45;1.80;;;0.80;;
12425;SDS011;6277;49.824;9.562;2023-09-19T05:44:12;1.13;;;0.90;;
12425;SDS011;6277;49.824;9.562;2023-09-19T05:46:39;1.70;;;0.90;;
12425;SDS011;6277;49.824;9.562;2023-09-19T05:49:04;2.83;;;1.15;;
12425;SDS011;6277;49.824;9.562;2023-09-19T05:51:30;0.80;;;0.80;;
12425;SDS011;6277;49.824;9.562;2023-09-19T05:53:56;2.50;;;1.08;;
12425;SDS011;6277;49.824;9.562;2023-09-19T05:56:22;1.90;;;1.00;;
12425;SDS011;6277;49.824;9.562;2023-09-19T05:58:48;1.17;;;0.90;;
12425;SDS011;6277;49.824;9.562;2023-09-19T06:01:17;2.22;;;0.90;;
12425;SDS011;6277;49.824;9.562;2023-09-19T06:03:43;2.15;;;1.05;;
12425;SDS011;6277;49.824;9.562;2023-09-19T06:06:08;1.77;;;1.02;;
12425;SDS011;6277;49.824;9.562;2023-09-19T06:08:34;1.85;;;1.20;;
12425;SDS011;6277;49.824;9.562;2023-09-19T06:11:00;1.40;;;1.10;;
12425;SDS011;6277;49.824;9.562;2023-09-19T06:13:27;1.60;;;1.25;;
12425;SDS011;6277;49.824;9.562;2023-09-19T06:15:54;1.70;;;1.00;;
12425;SDS011;6277;49.824;9.562;2023-09-19T06:18:21;1.70;;;1.10;;
12425;SDS011;6277;49.824;9.562;2023-09-19T06:20:51;1.55;;;1.10;;
12425;SDS011;6277;49.824;9.562;2023-09-19T06:23:17;2.80;;;1.33;;
12425;SDS011;6277;49.824;9.562;2023-09-19T06:25:45;1.83;;;1.17;;
12425;SDS011;6277;49.824;9.562;2023-09-19T06:28:10;1.92;;;1.30;;
12425;SDS011;6277;49.824;9.562;2023-09-19T06:30:39;2.17;;;1.50;;
12425;SDS011;6277;49.824;9.562;2023-09-19T06:33:05;1.52;;;1.20;;
12425;SDS011;6277;49.824;9.562;2023-09-19T06:35:32;1.92;;;1.40;;
12425;SDS011;6277;49.824;9.562;2023-09-19T06:38:03;2.03;;;1.30;;
12425;SDS011;6277;49.824;9.562;2023-09-19T06:40:29;2.83;;;1.35;;
12425;SDS011;6277;49.824;9.562;2023-09-19T06:42:56;1.88;;;1.35;;
12425;SDS011;6277;49.824;9.562;2023-09-19T06:45:22;2.00;;;1.50;;
12425;SDS011;6277;49.824;9.562;2023-09-19T06:47:48;2.03;;;1.40;;
12425;SDS011;6277;49.824;9.562;2023-09-19T06:50:15;2.22;;;1.33;;
12425;SDS011;6277;49.824;9.562;2023-09-19T06:52:45;1.70;;;1.20;;
12425;SDS011;6277;49.824;9.562;2023-09-19T06:55:15;3.63;;;2.00;;
12425;SDS011;6277;49.824;9.562;2023-09-19T06:57:41;2.17;;;1.40;;
12425;SDS011;6277;49.824;9.562;2023-09-19T07:00:09;2.58;;;1.35;;
12425;SDS011;6277;49.824;9.562;2023-09-19T07:02:43;1.95;;;1.60;;
12425;SDS011;6277;49.824;9.562;2023-09-19T07:05:19;2.50;;;1.30;;
12425;SDS011;6277;49.824;9.562;2023-09-19T07:07:46;1.98;;;1.20;;
12425;SDS011;6277;49.824;9.562;2023-09-19T07:10:12;1.90;;;1.27;;
12425;SDS011;6277;49.824;9.562;2023-09-19T07:12:38;1.98;;;1.30;;
12425;SDS011;6277;49.824;9.562;2023-09-19T07:15:03;3.47;;;1.38;;
12425;SDS011;6277;49.824;9.562;2023-09-19T07:17:31;5.47;;;1.50;;
12425;SDS011;6277;49.824;9.562;2023-09-19T07:19:58;1.42;;;1.23;;
12425;SDS011;6277;49.824;9.562;2023-09-19T07:22:23;2.75;;;1.23;;
12425;SDS011;6277;49.824;9.562;2023-09-19T07:24:51;2.90;;;1.10;;
12425;SDS011;6277;49.824;9.562;2023-09-19T07:27:17;3.90;;;1.40;;
12425;SDS011;6277;49.824;9.562;2023-09-19T07:29:42;1.83;;;1.20;;
12425;SDS011;6277;49.824;9.562;2023-09-19T07:32:08;1.77;;;1.30;;
12425;SDS011;6277;49.824;9.562;2023-09-19T07:34:35;2.08;;;1.30;;
12425;SDS011;6277;49.824;9.562;2023-09-19T07:37:05;2.10;;;1.52;;
12425;SDS011;6277;49.824;9.562;2023-09-19T07:39:31;2.83;;;1.38;;
12425;SDS011;6277;49.824;9.562;2023-09-19T07:41:57;3.05;;;1.30;;
12425;SDS011;6277;49.824;9.562;2023-09-19T07:44:23;3.42;;;1.52;;
12425;SDS011;6277;49.824;9.562;2023-09-19T07:46:50;3.85;;;1.42;;
12425;SDS011;6277;49.824;9.562;2023-09-19T07:49:17;1.70;;;1.20;;
12425;SDS011;6277;49.824;9.562;2023-09-19T07:51:43;1.42;;;1.27;;
12425;SDS011;6277;49.824;9.562;2023-09-19T07:54:11;2.55;;;1.05;;
12425;SDS011;6277;49.824;9.562;2023-09-19T07:56:37;2.10;;;1.08;;
12425;SDS011;6277;49.824;9.562;2023-09-19T07:59:03;3.10;;;1.33;;
12425;SDS011;6277;49.824;9.562;2023-09-19T08:01:28;1.95;;;1.27;;
12425;SDS011;6277;49.824;9.562;2023-09-19T08:03:54;2.65;;;1.25;;
12425;SDS011;6277;49.824;9.562;2023-09-19T08:06:19;1.92;;;1.10;;
12425;SDS011;6277;49.824;9.562;2023-09-19T08:08:45;1.88;;;1.05;;
12425;SDS011;6277;49.824;9.562;2023-09-19T08:11:11;3.25;;;1.25;;
12425;SDS011;6277;49.824;9.562;2023-09-19T08:13:41;2.78;;;1.30;;
12425;SDS011;6277;49.824;9.562;2023-09-19T08:16:09;2.05;;;0.95;;
12425;SDS011;6277;49.824;9.562;2023-09-19T08:18:35;3.38;;;1.55;;
12425;SDS011;6277;49.824;9.562;2023-09-19T08:21:02;2.53;;;0.98;;
12425;SDS011;6277;49.824;9.562;2023-09-19T08:23:28;1.77;;;1.23;;
12425;SDS011;6277;49.824;9.562;2023-09-19T08:25:57;2.10;;;1.08;;
12425;SDS011;6277;49.824;9.562;2023-09-19T08:28:23;1.63;;;1.20;;
12425;SDS011;6277;49.824;9.562;2023-09-19T08:30:49;1.65;;;1.10;;
12425;SDS011;6277;49.824;9.562;2023-09-19T08:33:15;2.80;;;1.05;;
12425;SDS011;6277;49.824;9.562;2023-09-19T08:35:41;1.85;;;1.10;;
12425;SDS011;6277;49.824;9.562;2023-09-19T08:38:07;2.80;;;1.25;;
12425;SDS011;6277;49.824;9.562;2023-09-19T08:40:36;3.63;;;1.13;;
12425;SDS011;6277;49.824;9.562;2023-09-19T08:43:04;3.53;;;1.00;;
12425;SDS011;6277;49.824;9.562;2023-09-19T08:45:32;3.42;;;1.40;;
12425;SDS011;6277;49.824;9.562;2023-09-19T08:50:59;4.60;;;1.10;;
12425;SDS011;6277;49.824;9.562;2023-09-19T08:53:51;1.98;;;0.80;;
12425;SDS011;6277;49.824;9.562;2023-09-19T08:56:14;2.20;;;0.95;;
12425;SDS011;6277;49.824;9.562;2023-09-19T08:58:48;2.72;;;0.90;;
12425;SDS011;6277;49.824;9.562;2023-09-19T09:01:18;1.75;;;0.90;;
12425;SDS011;6277;49.824;9.562;2023-09-19T09:03:50;2.65;;;1.10;;
12425;SDS011;6277;49.824;9.562;2023-09-19T09:06:17;3.40;;;1.13;;
12425;SDS011;6277;49.824;9.562;2023-09-19T09:08:45;2.95;;;0.95;;
12425;SDS011;6277;49.824;9.562;2023-09-19T09:11:13;0.93;;;0.63;;
12425;SDS011;6277;49.824;9.562;2023-09-19T09:13:39;2.38;;;1.13;;
12425;SDS011;6277;49.824;9.562;2023-09-19T09:16:06;3.38;;;1.20;;
12425;SDS011;6277;49.824;9.562;2023-09-19T09:18:32;3.25;;;1.00;;
12425;SDS011;6277;49.824;9.562;2023-09-19T09:20:58;1.67;;;0.98;;
12425;SDS011;6277;49.824;9.562;2023-09-19T09:23:24;2.92;;;1.00;;
12425;SDS011;6277;49.824;9.562;2023-09-19T09:25:54;2.15;;;0.80;;
12425;SDS011;6277;49.824;9.562;2023-09-19T09:28:25;2.85;;;1.10;;
12425;SDS011;6277;49.824;9.562;2023-09-19T09:30:52;2.22;;;0.82;;
12425;SDS011;6277;49.824;9.562;2023-09-19T09:33:17;1.80;;;0.80;;
12425;SDS011;6277;49.824;9.562;2023-09-19T09:38:26;2.35;;;0.90;;
12425;SDS011;6277;49.824;9.562;2023-09-19T09:40:53;2.75;;;0.80;;
12425;SDS011;6277;49.824;9.562;2023-09-19T09:46:23;2.47;;;0.80;;
12425;SDS011;6277;49.824;9.562;2023-09-19T09:51:45;3.17;;;1.00;;
12425;SDS011;6277;49.824;9.562;2023-09-19T09:54:22;1.80;;;0.90;;
12425;SDS011;6277;49.824;9.562;2023-09-19T09:56:52;2.90;;;1.02;;
12425;SDS011;6277;49.824;9.562;2023-09-19T09:59:19;2.50;;;0.98;;
12425;SDS011;6277;49.824;9.562;2023-09-19T10:01:49;1.63;;;0.88;;
12425;SDS011;6277;49.824;9.562;2023-09-19T10:04:27;2.67;;;1.10;;
12425;SDS011;6277;49.824;9.562;2023-09-19T10:07:01;1.48;;;0.70;;
12425;SDS011;6277;49.824;9.562;2023-09-19T10:09:44;1.75;;;0.90;;
12425;SDS011;6277;49.824;9.562;2023-09-19T10:12:10;1.73;;;1.05;;
12425;SDS011;6277;49.824;9.562;2023-09-19T10:14:38;2.08;;;1.08;;
12425;SDS011;6277;49.824;9.562;2023-09-19T10:17:08;3.60;;;1.20;;
12425;SDS011;6277;49.824;9.562;2023-09-19T10:22:22;3.03;;;1.40;;
12425;SDS011;6277;49.824;9.562;2023-09-19T10:24:53;1.55;;;0.82;;
12425;SDS011;6277;49.824;9.562;2023-09-19T10:27:36;2.10;;;0.80;;
12425;SDS011;6277;49.824;9.562;2023-09-19T10:30:15;2.47;;;0.98;;
12425;SDS011;6277;49.824;9.562;2023-09-19T10:32:45;1.75;;;1.13;;
12425;SDS011;6277;49.824;9.562;2023-09-19T10:35:46;2.85;;;0.90;;
12425;SDS011;6277;49.824;9.562;2023-09-19T10:38:30;2.25;;;0.90;;
12425;SDS011;6277;49.824;9.562;2023-09-19T10:41:04;2.05;;;1.10;;
12425;SDS011;6277;49.824;9.562;2023-09-19T10:44:03;1.17;;;0.85;;
12425;SDS011;6277;49.824;9.562;2023-09-19T10:54:11;1.40;;;0.90;;
12425;SDS011;6277;49.824;9.562;2023-09-19T10:57:26;1.42;;;0.90;;
12425;SDS011;6277;49.824;9.562;2023-09-19T11:03:40;1.85;;;0.95;;
12425;SDS011;6277;49.824;9.562;2023-09-19T11:06:58;1.98;;;0.80;;
12425;SDS011;6277;49.824;9.562;2023-09-19T11:09:45;2.08;;;0.82;;
12425;SDS011;6277;49.824;9.562;2023-09-19T11:15:01;1.90;;;0.80;;
12425;SDS011;6277;49.824;9.562;2023-09-19T11:17:39;1.75;;;0.93;;
12425;SDS011;6277;49.824;9.562;2023-09-19T11:30:31;2.42;;;1.10;;
12425;SDS011;6277;49.824;9.562;2023-09-19T11:46:30;2.28;;;1.08;;
12425;SDS011;6277;49.824;9.562;2023-09-19T11:49:05;2.08;;;1.25;;
12425;SDS011;6277;49.824;9.562;2023-09-19T11:51:41;2.95;;;1.13;;
12425;SDS011;6277;49.824;9.562;2023-09-19T11:54:12;3.40;;;1.13;;
12425;SDS011;6277;49.824;9.562;2023-09-19T11:59:09;2.55;;;1.20;;
12425;SDS011;6277;49.824;9.562;2023-09-19T12:01:35;3.22;;;1.10;;
12425;SDS011;6277;49.824;9.562;2023-09-19T12:04:08;2.88;;;1.00;;
12425;SDS011;6277;49.824;9.562;2023-09-19T12:06:36;1.70;;;0.82;;
12425;SDS011;6277;49.824;9.562;2023-09-19T12:09:04;2.08;;;1.00;;
12425;SDS011;6277;49.824;9.562;2023-09-19T12:11:40;2.83;;;1.10;;
12425;SDS011;6277;49.824;9.562;2023-09-19T12:14:08;2.60;;;0.90;;
12425;SDS011;6277;49.824;9.562;2023-09-19T12:16:34;2.15;;;0.80;;
12425;SDS011;6277;49.824;9.562;2023-09-19T12:19:22;1.35;;;0.70;;
12425;SDS011;6277;49.824;9.562;2023-09-19T12:21:54;3.13;;;0.90;;
12425;SDS011;6277;49.824;9.562;2023-09-19T12:24:30;2.22;;;1.00;;
12425;SDS011;6277;49.824;9.562;2023-09-19T12:27:00;2.50;;;0.80;;
12425;SDS011;6277;49.824;9.562;2023-09-19T12:29:30;1.30;;;0.73;;
12425;SDS011;6277;49.824;9.562;2023-09-19T12:31:59;2.30;;;0.80;;
12425;SDS011;6277;49.824;9.562;2023-09-19T12:34:31;2.97;;;0.90;;
12425;SDS011;6277;49.824;9.562;2023-09-19T12:37:13;6.07;;;1.08;;
12425;SDS011;6277;49.824;9.562;2023-09-19T12:40:02;3.33;;;0.90;;
12425;SDS011;6277;49.824;9.562;2023-09-19T12:42:40;2.05;;;0.80;;
12425;SDS011;6277;49.824;9.562;2023-09-19T12:45:07;2.20;;;0.73;;
12425;SDS011;6277;49.824;9.562;2023-09-19T12:47:38;0.90;;;0.55;;
12425;SDS011;6277;49.824;9.562;2023-09-19T12:52:35;2.33;;;1.20;;
12425;SDS011;6277;49.824;9.562;2023-09-19T12:55:02;2.25;;;1.00;;
12425;SDS011;6277;49.824;9.562;2023-09-19T12:57:27;1.33;;;0.80;;
12425;SDS011;6277;49.824;9.562;2023-09-19T12:59:53;1.23;;;0.70;;
12425;SDS011;6277;49.824;9.562;2023-09-19T13:02:20;2.58;;;0.80;;
12425;SDS011;6277;49.824;9.562;2023-09-19T13:04:55;1.80;;;0.73;;
12425;SDS011;6277;49.824;9.562;2023-09-19T13:07:41;1.10;;;0.63;;
12425;SDS011;6277;49.824;9.562;2023-09-19T13:10:14;1.52;;;0.77;;
12425;SDS011;6277;49.824;9.562;2023-09-19T13:12:41;1.88;;;0.70;;
12425;SDS011;6277;49.824;9.562;2023-09-19T13:15:12;1.73;;;0.75;;
12425;SDS011;6277;49.824;9.562;2023-09-19T13:17:45;1.77;;;0.60;;
12425;SDS011;6277;49.824;9.562;2023-09-19T13:20:23;1.08;;;0.47;;
12425;SDS011;6277;49.824;9.562;2023-09-19T13:22:52;1.25;;;0.60;;
12425;SDS011;6277;49.824;9.562;2023-09-19T13:25:20;1.25;;;0.75;;
12425;SDS011;6277;49.824;9.562;2023-09-19T13:27:47;1.95;;;0.70;;
12425;SDS011;6277;49.824;9.562;2023-09-19T13:30:19;1.52;;;0.75;;
12425;SDS011;6277;49.824;9.562;2023-09-19T13:32:46;2.60;;;0.60;;
12425;SDS011;6277;49.824;9.562;2023-09-19T13:35:12;1.80;;;0.60;;
12425;SDS011;6277;49.824;9.562;2023-09-19T13:37:39;1.55;;;0.70;;
12425;SDS011;6277;49.824;9.562;2023-09-19T13:40:12;1.33;;;0.70;;
12425;SDS011;6277;49.824;9.562;2023-09-19T13:42:39;1.52;;;0.57;;
12425;SDS011;6277;49.824;9.562;2023-09-19T13:45:06;1.85;;;0.50;;
12425;SDS011;6277;49.824;9.562;2023-09-19T13:47:34;1.20;;;0.55;;
12425;SDS011;6277;49.824;9.562;2023-09-19T13:50:03;2.35;;;0.70;;
12425;SDS011;6277;49.824;9.562;2023-09-19T13:52:29;1.90;;;0.70;;
12425;SDS011;6277;49.824;9.562;2023-09-19T13:54:56;1.92;;;0.70;;
12425;SDS011;6277;49.824;9.562;2023-09-19T13:57:22;1.05;;;0.50;;
12425;SDS011;6277;49.824;9.562;2023-09-19T13:59:51;1.08;;;0.50;;
12425;SDS011;6277;49.824;9.562;2023-09-19T14:02:19;0.82;;;0.57;;
12425;SDS011;6277;49.824;9.562;2023-09-19T14:04:44;1.77;;;0.60;;
12425;SDS011;6277;49.824;9.562;2023-09-19T14:07:10;2.17;;;0.70;;
12425;SDS011;6277;49.824;9.562;2023-09-19T14:09:40;1.88;;;0.63;;
12425;SDS011;6277;49.824;9.562;2023-09-19T14:12:07;2.05;;;0.63;;
12425;SDS011;6277;49.824;9.562;2023-09-19T14:15:14;2.25;;;0.90;;
12425;SDS011;6277;49.824;9.562;2023-09-19T14:18:11;1.48;;;0.55;;
12425;SDS011;6277;49.824;9.562;2023-09-19T14:25:04;1.60;;;0.63;;
12425;SDS011;6277;49.824;9.562;2023-09-19T14:27:35;2.13;;;0.77;;
12425;SDS011;6277;49.824;9.562;2023-09-19T14:30:00;1.23;;;0.70;;
12425;SDS011;6277;49.824;9.562;2023-09-19T14:32:26;2.40;;;0.77;;
12425;SDS011;6277;49.824;9.562;2023-09-19T14:34:51;2.13;;;0.68;;
12425;SDS011;6277;49.824;9.562;2023-09-19T14:37:17;1.35;;;0.47;;
12425;SDS011;6277;49.824;9.562;2023-09-19T14:39:43;1.90;;;0.68;;
12425;SDS011;6277;49.824;9.562;2023-09-19T14:42:11;1.75;;;0.50;;
12425;SDS011;6277;49.824;9.562;2023-09-19T14:44:39;1.17;;;0.60;;
12425;SDS011;6277;49.824;9.562;2023-09-19T14:47:05;1.17;;;0.70;;
12425;SDS011;6277;49.824;9.562;2023-09-19T14:49:34;1.65;;;0.60;;
12425;SDS011;6277;49.824;9.562;2023-09-19T14:52:06;2.53;;;0.80;;
12425;SDS011;6277;49.824;9.562;2023-09-19T14:54:34;1.75;;;0.80;;
12425;SDS011;6277;49.824;9.562;2023-09-19T14:57:00;1.55;;;0.65;;
12425;SDS011;6277;49.824;9.562;2023-09-19T14:59:33;2.22;;;0.73;;
12425;SDS011;6277;49.824;9.562;2023-09-19T15:02:03;1.92;;;0.65;;
12425;SDS011;6277;49.824;9.562;2023-09-19T15:04:29;1.40;;;0.70;;
12425;SDS011;6277;49.824;9.562;2023-09-19T15:06:54;2.70;;;0.70;;
12425;SDS011;6277;49.824;9.562;2023-09-19T15:09:23;1.17;;;0.63;;
12425;SDS011;6277;49.824;9.562;2023-09-19T15:11:51;1.35;;;0.60;;
12425;SDS011;6277;49.824;9.562;2023-09-19T15:14:17;1.45;;;0.70;;
12425;SDS011;6277;49.824;9.562;2023-09-19T15:16:43;1.65;;;0.55;;
12425;SDS011;6277;49.824;9.562;2023-09-19T15:19:09;1.85;;;0.57;;
12425;SDS011;6277;49.824;9.562;2023-09-19T15:21:35;1.55;;;0.60;;
12425;SDS011;6277;49.824;9.562;2023-09-19T15:24:02;1.38;;;0.47;;
12425;SDS011;6277;49.824;9.562;2023-09-19T15:26:28;1.40;;;0.70;;
12425;SDS011;6277;49.824;9.562;2023-09-19T15:28:55;2.72;;;0.60;;
12425;SDS011;6277;49.824;9.562;2023-09-19T15:31:20;0.98;;;0.50;;
12425;SDS011;6277;49.824;9.562;2023-09-19T15:33:46;1.33;;;0.60;;
12425;SDS011;6277;49.824;9.562;2023-09-19T15:36:12;2.90;;;0.60;;
12425;SDS011;6277;49.824;9.562;2023-09-19T15:38:57;1.00;;;0.50;;
12425;SDS011;6277;49.824;9.562;2023-09-19T15:41:24;0.93;;;0.47;;
12425;SDS011;6277;49.824;9.562;2023-09-19T15:43:53;0.93;;;0.50;;
12425;SDS011;6277;49.824;9.562;2023-09-19T15:46:19;1.33;;;0.70;;
12425;SDS011;6277;49.824;9.562;2023-09-19T15:48:46;1.55;;;0.55;;
12425;SDS011;6277;49.824;9.562;2023-09-19T15:51:12;1.10;;;0.47;;
12425;SDS011;6277;49.824;9.562;2023-09-19T15:53:46;2.00;;;0.57;;
12425;SDS011;6277;49.824;9.562;2023-09-19T15:56:13;1.67;;;0.60;;
12425;SDS011;6277;49.824;9.562;2023-09-19T15:58:40;0.85;;;0.40;;
12425;SDS011;6277;49.824;9.562;2023-09-19T16:01:06;1.38;;;0.40;;
12425;SDS011;6277;49.824;9.562;2023-09-19T16:03:36;0.93;;;0.50;;
12425;SDS011;6277;49.824;9.562;2023-09-19T16:06:12;1.20;;;0.70;;
12425;SDS011;6277;49.824;9.562;2023-09-19T16:08:39;0.95;;;0.52;;
12425;SDS011;6277;49.824;9.562;2023-09-19T16:11:05;1.02;;;0.50;;
12425;SDS011;6277;49.824;9.562;2023-09-19T16:13:31;0.90;;;0.40;;
12425;SDS011;6277;49.824;9.562;2023-09-19T16:15:57;1.05;;;0.50;;
12425;SDS011;6277;49.824;9.562;2023-09-19T16:18:23;1.98;;;0.50;;
12425;SDS011;6277;49.824;9.562;2023-09-19T16:20:48;1.10;;;0.50;;
12425;SDS011;6277;49.824;9.562;2023-09-19T16:23:15;1.30;;;0.50;;
12425;SDS011;6277;49.824;9.562;2023-09-19T16:25:40;1.70;;;0.60;;